sensor_id;sensor_type;location;lat;lon;timestamp;P1;durP1;ratioP1;P2;durP2;ratioP2
28353;SDS011;15603;50.878;8.036;2023-04-23T00:01:17;3.97;;;1.90;;
28353;SDS011;15603;50.878;8.036;2023-04-23T00:03:46;5.35;;;2.50;;
28353;SDS011;15603;50.878;8.036;2023-04-23T00:06:16;4.18;;;2.30;;
28353;SDS011;15603;50.878;8.036;2023-04-23T00:08:43;4.22;;;2.28;;
28353;SDS011;15603;50.878;8.036;2023-04-23T00:11:10;4.65;;;2.53;;
28353;SDS011;15603;50.878;8.036;2023-04-23T00:13:38;3.80;;;2.63;;
28353;SDS011;15603;50.878;8.036;2023-04-23T00:16:05;6.93;;;3.10;;
28353;SDS011;15603;50.878;8.036;2023-04-23T00:18:33;3.50;;;2.85;;
28353;SDS011;15603;50.878;8.036;2023-04-23T00:21:00;8.23;;;2.60;;
28353;SDS011;15603;50.878;8.036;2023-04-23T00:23:27;3.85;;;2.58;;
28353;SDS011;15603;50.878;8.036;2023-04-23T00:25:54;5.35;;;2.90;;
28353;SDS011;15603;50.878;8.036;2023-04-23T00:28:21;4.40;;;3.22;;
28353;SDS011;15603;50.878;8.036;2023-04-23T00:30:48;4.57;;;3.05;;
28353;SDS011;15603;50.878;8.036;2023-04-23T00:33:15;5.97;;;2.97;;
28353;SDS011;15603;50.878;8.036;2023-04-23T00:35:42;11.05;;;3.50;;
28353;SDS011;15603;50.878;8.036;2023-04-23T00:38:10;19.25;;;5.07;;
28353;SDS011;15603;50.878;8.036;2023-04-23T00:40:37;6.38;;;3.35;;
28353;SDS011;15603;50.878;8.036;2023-04-23T00:43:04;8.32;;;3.55;;
28353;SDS011;15603;50.878;8.036;2023-04-23T00:45:32;7.28;;;3.60;;
28353;SDS011;15603;50.878;8.036;2023-04-23T00:48:01;7.70;;;3.60;;
28353;SDS011;15603;50.878;8.036;2023-04-23T00:50:29;7.30;;;4.30;;
28353;SDS011;15603;50.878;8.036;2023-04-23T00:52:56;6.68;;;3.97;;
28353;SDS011;15603;50.878;8.036;2023-04-23T00:55:23;6.25;;;3.75;;
28353;SDS011;15603;50.878;8.036;2023-04-23T00:57:51;7.55;;;3.83;;
28353;SDS011;15603;50.878;8.036;2023-04-23T01:00:18;6.57;;;4.10;;
28353;SDS011;15603;50.878;8.036;2023-04-23T01:02:47;5.43;;;3.95;;
28353;SDS011;15603;50.878;8.036;2023-04-23T01:05:16;8.02;;;4.75;;
28353;SDS011;15603;50.878;8.036;2023-04-23T01:07:43;8.00;;;4.10;;
28353;SDS011;15603;50.878;8.036;2023-04-23T01:10:12;7.10;;;4.68;;
28353;SDS011;15603;50.878;8.036;2023-04-23T01:12:40;8.50;;;4.40;;
28353;SDS011;15603;50.878;8.036;2023-04-23T01:15:08;7.72;;;5.55;;
28353;SDS011;15603;50.878;8.036;2023-04-23T01:17:35;8.70;;;5.75;;
28353;SDS011;15603;50.878;8.036;2023-04-23T01:20:03;8.70;;;6.28;;
28353;SDS011;15603;50.878;8.036;2023-04-23T01:22:33;8.02;;;5.82;;
28353;SDS011;15603;50.878;8.036;2023-04-23T01:25:03;8.20;;;6.15;;
28353;SDS011;15603;50.878;8.036;2023-04-23T01:27:31;10.60;;;6.35;;
28353;SDS011;15603;50.878;8.036;2023-04-23T01:29:59;9.48;;;6.47;;
28353;SDS011;15603;50.878;8.036;2023-04-23T01:32:27;12.07;;;8.55;;
28353;SDS011;15603;50.878;8.036;2023-04-23T01:34:55;14.45;;;9.75;;
28353;SDS011;15603;50.878;8.036;2023-04-23T01:37:23;16.15;;;9.55;;
28353;SDS011;15603;50.878;8.036;2023-04-23T01:39:50;17.45;;;10.68;;
28353;SDS011;15603;50.878;8.036;2023-04-23T01:42:18;19.42;;;11.02;;
28353;SDS011;15603;50.878;8.036;2023-04-23T01:44:45;15.90;;;11.27;;
28353;SDS011;15603;50.878;8.036;2023-04-23T01:47:12;23.92;;;10.95;;
28353;SDS011;15603;50.878;8.036;2023-04-23T01:49:39;18.05;;;11.18;;
28353;SDS011;15603;50.878;8.036;2023-04-23T01:52:07;20.88;;;11.45;;
28353;SDS011;15603;50.878;8.036;2023-04-23T01:54:34;16.42;;;11.95;;
28353;SDS011;15603;50.878;8.036;2023-04-23T01:57:01;16.65;;;11.25;;
28353;SDS011;15603;50.878;8.036;2023-04-23T01:59:28;15.50;;;10.45;;
28353;SDS011;15603;50.878;8.036;2023-04-23T02:01:55;17.45;;;11.00;;
28353;SDS011;15603;50.878;8.036;2023-04-23T02:04:23;21.83;;;11.85;;
28353;SDS011;15603;50.878;8.036;2023-04-23T02:06:50;17.58;;;11.27;;
28353;SDS011;15603;50.878;8.036;2023-04-23T02:09:17;20.40;;;11.70;;
28353;SDS011;15603;50.878;8.036;2023-04-23T02:11:45;19.92;;;12.60;;
28353;SDS011;15603;50.878;8.036;2023-04-23T02:14:12;18.58;;;11.88;;
28353;SDS011;15603;50.878;8.036;2023-04-23T02:16:39;19.65;;;12.75;;
28353;SDS011;15603;50.878;8.036;2023-04-23T02:19:06;24.45;;;14.73;;
28353;SDS011;15603;50.878;8.036;2023-04-23T02:21:33;24.35;;;14.73;;
28353;SDS011;15603;50.878;8.036;2023-04-23T02:24:01;24.65;;;14.25;;
28353;SDS011;15603;50.878;8.036;2023-04-23T02:26:28;24.65;;;15.23;;
28353;SDS011;15603;50.878;8.036;2023-04-23T02:28:55;19.40;;;13.27;;
28353;SDS011;15603;50.878;8.036;2023-04-23T02:31:22;23.15;;;13.73;;
28353;SDS011;15603;50.878;8.036;2023-04-23T02:33:50;21.50;;;14.00;;
28353;SDS011;15603;50.878;8.036;2023-04-23T02:36:17;21.83;;;14.10;;
28353;SDS011;15603;50.878;8.036;2023-04-23T02:38:44;22.55;;;14.32;;
28353;SDS011;15603;50.878;8.036;2023-04-23T02:41:13;23.55;;;15.95;;
28353;SDS011;15603;50.878;8.036;2023-04-23T02:43:40;22.67;;;15.98;;
28353;SDS011;15603;50.878;8.036;2023-04-23T02:46:07;22.40;;;14.88;;
28353;SDS011;15603;50.878;8.036;2023-04-23T02:48:39;24.25;;;15.45;;
28353;SDS011;15603;50.878;8.036;2023-04-23T02:51:08;26.37;;;15.90;;
28353;SDS011;15603;50.878;8.036;2023-04-23T02:53:36;26.15;;;16.27;;
28353;SDS011;15603;50.878;8.036;2023-04-23T02:56:03;25.73;;;17.08;;
28353;SDS011;15603;50.878;8.036;2023-04-23T02:58:31;24.13;;;15.80;;
28353;SDS011;15603;50.878;8.036;2023-04-23T03:01:00;28.17;;;17.73;;
28353;SDS011;15603;50.878;8.036;2023-04-23T03:03:28;27.15;;;16.05;;
28353;SDS011;15603;50.878;8.036;2023-04-23T03:06:01;27.67;;;17.23;;
28353;SDS011;15603;50.878;8.036;2023-04-23T03:08:28;29.73;;;17.55;;
28353;SDS011;15603;50.878;8.036;2023-04-23T03:10:56;26.23;;;16.50;;
28353;SDS011;15603;50.878;8.036;2023-04-23T03:13:23;24.45;;;16.77;;
28353;SDS011;15603;50.878;8.036;2023-04-23T03:15:52;24.80;;;16.77;;
28353;SDS011;15603;50.878;8.036;2023-04-23T03:18:19;25.50;;;16.17;;
28353;SDS011;15603;50.878;8.036;2023-04-23T03:20:50;25.30;;;15.55;;
28353;SDS011;15603;50.878;8.036;2023-04-23T03:23:17;21.40;;;15.20;;
28353;SDS011;15603;50.878;8.036;2023-04-23T03:25:46;26.73;;;14.57;;
28353;SDS011;15603;50.878;8.036;2023-04-23T03:28:13;25.05;;;15.43;;
28353;SDS011;15603;50.878;8.036;2023-04-23T03:30:40;26.67;;;16.50;;
28353;SDS011;15603;50.878;8.036;2023-04-23T03:33:07;28.70;;;16.65;;
28353;SDS011;15603;50.878;8.036;2023-04-23T03:35:35;28.23;;;16.65;;
28353;SDS011;15603;50.878;8.036;2023-04-23T03:38:04;25.98;;;16.25;;
28353;SDS011;15603;50.878;8.036;2023-04-23T03:40:34;24.67;;;16.63;;
28353;SDS011;15603;50.878;8.036;2023-04-23T03:43:03;22.77;;;15.18;;
28353;SDS011;15603;50.878;8.036;2023-04-23T03:45:48;27.90;;;17.30;;
28353;SDS011;15603;50.878;8.036;2023-04-23T03:48:16;25.05;;;17.27;;
28353;SDS011;15603;50.878;8.036;2023-04-23T03:50:43;32.92;;;18.00;;
28353;SDS011;15603;50.878;8.036;2023-04-23T03:53:23;29.13;;;18.63;;
28353;SDS011;15603;50.878;8.036;2023-04-23T03:56:08;31.88;;;19.33;;
28353;SDS011;15603;50.878;8.036;2023-04-23T03:58:46;35.08;;;20.67;;
28353;SDS011;15603;50.878;8.036;2023-04-23T04:01:13;36.00;;;18.90;;
28353;SDS011;15603;50.878;8.036;2023-04-23T04:03:44;31.13;;;19.17;;
28353;SDS011;15603;50.878;8.036;2023-04-23T04:06:12;32.60;;;20.42;;
28353;SDS011;15603;50.878;8.036;2023-04-23T04:08:39;31.58;;;19.98;;
28353;SDS011;15603;50.878;8.036;2023-04-23T04:11:06;32.15;;;19.67;;
28353;SDS011;15603;50.878;8.036;2023-04-23T04:13:33;31.38;;;18.52;;
28353;SDS011;15603;50.878;8.036;2023-04-23T04:16:00;26.80;;;17.33;;
28353;SDS011;15603;50.878;8.036;2023-04-23T04:18:28;28.60;;;17.92;;
28353;SDS011;15603;50.878;8.036;2023-04-23T04:20:55;31.55;;;18.35;;
28353;SDS011;15603;50.878;8.036;2023-04-23T04:23:22;31.00;;;17.88;;
28353;SDS011;15603;50.878;8.036;2023-04-23T04:25:49;29.63;;;16.85;;
28353;SDS011;15603;50.878;8.036;2023-04-23T04:28:17;30.25;;;17.67;;
28353;SDS011;15603;50.878;8.036;2023-04-23T04:30:44;25.20;;;16.95;;
28353;SDS011;15603;50.878;8.036;2023-04-23T04:33:11;28.35;;;16.52;;
28353;SDS011;15603;50.878;8.036;2023-04-23T04:35:38;30.45;;;18.05;;
28353;SDS011;15603;50.878;8.036;2023-04-23T04:38:05;26.67;;;17.35;;
28353;SDS011;15603;50.878;8.036;2023-04-23T04:40:32;27.85;;;17.52;;
28353;SDS011;15603;50.878;8.036;2023-04-23T04:43:00;30.58;;;18.15;;
28353;SDS011;15603;50.878;8.036;2023-04-23T04:45:27;30.00;;;17.65;;
28353;SDS011;15603;50.878;8.036;2023-04-23T04:47:54;35.72;;;18.80;;
28353;SDS011;15603;50.878;8.036;2023-04-23T04:50:21;26.38;;;17.65;;
28353;SDS011;15603;50.878;8.036;2023-04-23T04:52:48;30.35;;;17.90;;
28353;SDS011;15603;50.878;8.036;2023-04-23T04:55:16;31.30;;;18.67;;
28353;SDS011;15603;50.878;8.036;2023-04-23T04:57:43;29.98;;;18.85;;
28353;SDS011;15603;50.878;8.036;2023-04-23T05:00:28;36.85;;;18.20;;
28353;SDS011;15603;50.878;8.036;2023-04-23T05:02:56;40.65;;;18.10;;
28353;SDS011;15603;50.878;8.036;2023-04-23T05:05:25;32.65;;;19.17;;
28353;SDS011;15603;50.878;8.036;2023-04-23T05:07:53;32.60;;;18.40;;
28353;SDS011;15603;50.878;8.036;2023-04-23T05:10:20;27.98;;;17.63;;
28353;SDS011;15603;50.878;8.036;2023-04-23T05:12:47;31.13;;;18.45;;
28353;SDS011;15603;50.878;8.036;2023-04-23T05:15:14;35.60;;;19.23;;
28353;SDS011;15603;50.878;8.036;2023-04-23T05:17:42;38.53;;;19.67;;
28353;SDS011;15603;50.878;8.036;2023-04-23T05:20:09;37.90;;;18.67;;
28353;SDS011;15603;50.878;8.036;2023-04-23T05:22:37;31.42;;;19.35;;
28353;SDS011;15603;50.878;8.036;2023-04-23T05:25:05;31.50;;;19.27;;
28353;SDS011;15603;50.878;8.036;2023-04-23T05:27:33;31.60;;;20.00;;
28353;SDS011;15603;50.878;8.036;2023-04-23T05:30:01;33.13;;;20.13;;
28353;SDS011;15603;50.878;8.036;2023-04-23T05:32:29;31.15;;;18.13;;
28353;SDS011;15603;50.878;8.036;2023-04-23T05:34:57;29.40;;;18.52;;
28353;SDS011;15603;50.878;8.036;2023-04-23T05:37:25;36.08;;;20.25;;
28353;SDS011;15603;50.878;8.036;2023-04-23T05:39:52;30.88;;;19.23;;
28353;SDS011;15603;50.878;8.036;2023-04-23T05:42:20;31.85;;;19.20;;
28353;SDS011;15603;50.878;8.036;2023-04-23T05:44:47;30.30;;;19.02;;
28353;SDS011;15603;50.878;8.036;2023-04-23T05:47:14;26.70;;;16.80;;
28353;SDS011;15603;50.878;8.036;2023-04-23T05:49:41;31.48;;;17.90;;
28353;SDS011;15603;50.878;8.036;2023-04-23T05:52:08;26.73;;;17.27;;
28353;SDS011;15603;50.878;8.036;2023-04-23T05:54:35;30.40;;;17.77;;
28353;SDS011;15603;50.878;8.036;2023-04-23T05:57:02;29.27;;;17.95;;
28353;SDS011;15603;50.878;8.036;2023-04-23T05:59:30;27.45;;;16.02;;
28353;SDS011;15603;50.878;8.036;2023-04-23T06:01:58;24.73;;;16.10;;
28353;SDS011;15603;50.878;8.036;2023-04-23T06:04:25;22.42;;;14.10;;
28353;SDS011;15603;50.878;8.036;2023-04-23T06:06:53;22.60;;;14.77;;
28353;SDS011;15603;50.878;8.036;2023-04-23T06:09:20;21.13;;;13.88;;
28353;SDS011;15603;50.878;8.036;2023-04-23T06:11:47;22.98;;;13.57;;
28353;SDS011;15603;50.878;8.036;2023-04-23T06:14:16;22.02;;;13.25;;
28353;SDS011;15603;50.878;8.036;2023-04-23T06:16:43;20.58;;;13.20;;
28353;SDS011;15603;50.878;8.036;2023-04-23T06:19:10;22.23;;;12.18;;
28353;SDS011;15603;50.878;8.036;2023-04-23T06:21:37;20.23;;;12.70;;
28353;SDS011;15603;50.878;8.036;2023-04-23T06:24:04;19.88;;;12.10;;
28353;SDS011;15603;50.878;8.036;2023-04-23T06:26:33;21.30;;;11.60;;
28353;SDS011;15603;50.878;8.036;2023-04-23T06:29:08;20.75;;;12.45;;
28353;SDS011;15603;50.878;8.036;2023-04-23T06:31:42;18.08;;;10.98;;
28353;SDS011;15603;50.878;8.036;2023-04-23T06:34:10;18.13;;;11.23;;
28353;SDS011;15603;50.878;8.036;2023-04-23T06:36:37;15.18;;;10.38;;
28353;SDS011;15603;50.878;8.036;2023-04-23T06:39:04;21.20;;;10.98;;
28353;SDS011;15603;50.878;8.036;2023-04-23T06:41:31;21.63;;;10.98;;
28353;SDS011;15603;50.878;8.036;2023-04-23T06:44:09;15.63;;;10.75;;
28353;SDS011;15603;50.878;8.036;2023-04-23T06:46:46;18.08;;;10.02;;
28353;SDS011;15603;50.878;8.036;2023-04-23T06:49:13;13.50;;;8.20;;
28353;SDS011;15603;50.878;8.036;2023-04-23T06:51:41;14.93;;;8.75;;
28353;SDS011;15603;50.878;8.036;2023-04-23T06:54:08;20.20;;;9.20;;
28353;SDS011;15603;50.878;8.036;2023-04-23T06:56:35;15.13;;;7.65;;
28353;SDS011;15603;50.878;8.036;2023-04-23T06:59:02;10.00;;;6.68;;
28353;SDS011;15603;50.878;8.036;2023-04-23T07:01:30;10.10;;;6.85;;
28353;SDS011;15603;50.878;8.036;2023-04-23T07:03:58;9.23;;;5.63;;
28353;SDS011;15603;50.878;8.036;2023-04-23T07:06:25;10.18;;;6.13;;
28353;SDS011;15603;50.878;8.036;2023-04-23T07:08:53;11.63;;;5.75;;
28353;SDS011;15603;50.878;8.036;2023-04-23T07:11:20;10.40;;;5.72;;
28353;SDS011;15603;50.878;8.036;2023-04-23T07:13:47;10.52;;;5.35;;
28353;SDS011;15603;50.878;8.036;2023-04-23T07:16:14;8.70;;;5.25;;
28353;SDS011;15603;50.878;8.036;2023-04-23T07:18:42;5.63;;;3.47;;
28353;SDS011;15603;50.878;8.036;2023-04-23T07:21:09;6.93;;;3.47;;
28353;SDS011;15603;50.878;8.036;2023-04-23T07:23:36;5.97;;;3.75;;
28353;SDS011;15603;50.878;8.036;2023-04-23T07:26:03;6.78;;;3.20;;
28353;SDS011;15603;50.878;8.036;2023-04-23T07:28:30;5.80;;;2.50;;
28353;SDS011;15603;50.878;8.036;2023-04-23T07:30:57;8.80;;;2.50;;
28353;SDS011;15603;50.878;8.036;2023-04-23T07:33:25;4.25;;;2.42;;
28353;SDS011;15603;50.878;8.036;2023-04-23T07:35:52;4.63;;;2.40;;
28353;SDS011;15603;50.878;8.036;2023-04-23T07:38:19;8.00;;;2.95;;
28353;SDS011;15603;50.878;8.036;2023-04-23T07:40:46;6.43;;;2.58;;
28353;SDS011;15603;50.878;8.036;2023-04-23T07:43:13;4.05;;;2.17;;
28353;SDS011;15603;50.878;8.036;2023-04-23T07:45:42;3.80;;;2.25;;
28353;SDS011;15603;50.878;8.036;2023-04-23T07:48:09;2.92;;;1.73;;
28353;SDS011;15603;50.878;8.036;2023-04-23T07:50:36;4.70;;;2.10;;
28353;SDS011;15603;50.878;8.036;2023-04-23T07:53:03;2.63;;;2.05;;
28353;SDS011;15603;50.878;8.036;2023-04-23T07:55:30;2.88;;;1.90;;
28353;SDS011;15603;50.878;8.036;2023-04-23T07:57:57;3.50;;;1.90;;
28353;SDS011;15603;50.878;8.036;2023-04-23T08:00:25;4.13;;;2.35;;
28353;SDS011;15603;50.878;8.036;2023-04-23T08:02:52;4.68;;;2.40;;
28353;SDS011;15603;50.878;8.036;2023-04-23T08:05:19;5.70;;;2.05;;
28353;SDS011;15603;50.878;8.036;2023-04-23T08:07:47;4.70;;;1.90;;
28353;SDS011;15603;50.878;8.036;2023-04-23T08:10:14;5.70;;;1.95;;
28353;SDS011;15603;50.878;8.036;2023-04-23T08:12:41;3.38;;;2.28;;
28353;SDS011;15603;50.878;8.036;2023-04-23T08:15:08;8.38;;;1.83;;
28353;SDS011;15603;50.878;8.036;2023-04-23T08:17:39;1.77;;;1.23;;
28353;SDS011;15603;50.878;8.036;2023-04-23T08:20:07;4.65;;;1.95;;
28353;SDS011;15603;50.878;8.036;2023-04-23T08:22:34;4.53;;;1.40;;
28353;SDS011;15603;50.878;8.036;2023-04-23T08:25:01;3.65;;;2.13;;
28353;SDS011;15603;50.878;8.036;2023-04-23T08:27:29;2.80;;;1.42;;
28353;SDS011;15603;50.878;8.036;2023-04-23T08:29:56;3.35;;;1.70;;
28353;SDS011;15603;50.878;8.036;2023-04-23T08:32:23;5.60;;;1.70;;
28353;SDS011;15603;50.878;8.036;2023-04-23T08:34:50;2.42;;;1.50;;
28353;SDS011;15603;50.878;8.036;2023-04-23T08:37:17;3.40;;;1.60;;
28353;SDS011;15603;50.878;8.036;2023-04-23T08:39:56;8.20;;;1.70;;
28353;SDS011;15603;50.878;8.036;2023-04-23T08:45:24;3.58;;;1.10;;
28353;SDS011;15603;50.878;8.036;2023-04-23T08:47:52;3.83;;;2.35;;
28353;SDS011;15603;50.878;8.036;2023-04-23T08:50:28;1.25;;;0.85;;
28353;SDS011;15603;50.878;8.036;2023-04-23T08:52:56;1.27;;;1.10;;
28353;SDS011;15603;50.878;8.036;2023-04-23T08:55:24;1.63;;;0.98;;
28353;SDS011;15603;50.878;8.036;2023-04-23T08:57:51;3.70;;;1.00;;
28353;SDS011;15603;50.878;8.036;2023-04-23T09:00:19;2.65;;;1.13;;
28353;SDS011;15603;50.878;8.036;2023-04-23T09:02:49;4.63;;;1.20;;
28353;SDS011;15603;50.878;8.036;2023-04-23T09:05:16;5.15;;;2.10;;
28353;SDS011;15603;50.878;8.036;2023-04-23T09:07:43;3.03;;;1.20;;
28353;SDS011;15603;50.878;8.036;2023-04-23T09:10:11;3.95;;;1.33;;
28353;SDS011;15603;50.878;8.036;2023-04-23T09:12:43;3.97;;;1.30;;
28353;SDS011;15603;50.878;8.036;2023-04-23T09:15:11;2.25;;;1.05;;
28353;SDS011;15603;50.878;8.036;2023-04-23T09:17:42;5.85;;;1.10;;
28353;SDS011;15603;50.878;8.036;2023-04-23T09:20:11;2.58;;;1.20;;
28353;SDS011;15603;50.878;8.036;2023-04-23T09:22:49;3.38;;;1.13;;
28353;SDS011;15603;50.878;8.036;2023-04-23T09:25:22;1.45;;;1.13;;
28353;SDS011;15603;50.878;8.036;2023-04-23T09:27:50;1.63;;;1.33;;
28353;SDS011;15603;50.878;8.036;2023-04-23T09:30:18;4.28;;;1.38;;
28353;SDS011;15603;50.878;8.036;2023-04-23T09:32:46;3.08;;;1.10;;
28353;SDS011;15603;50.878;8.036;2023-04-23T09:35:15;2.42;;;0.90;;
28353;SDS011;15603;50.878;8.036;2023-04-23T09:37:44;4.00;;;1.00;;
28353;SDS011;15603;50.878;8.036;2023-04-23T09:40:18;8.30;;;2.33;;
28353;SDS011;15603;50.878;8.036;2023-04-23T09:42:47;6.30;;;1.08;;
28353;SDS011;15603;50.878;8.036;2023-04-23T09:45:21;4.75;;;1.58;;
28353;SDS011;15603;50.878;8.036;2023-04-23T09:47:54;2.75;;;1.20;;
28353;SDS011;15603;50.878;8.036;2023-04-23T09:53:01;3.15;;;1.90;;
28353;SDS011;15603;50.878;8.036;2023-04-23T09:55:29;3.63;;;1.15;;
28353;SDS011;15603;50.878;8.036;2023-04-23T09:58:01;2.33;;;1.27;;
28353;SDS011;15603;50.878;8.036;2023-04-23T10:00:36;1.65;;;1.20;;
28353;SDS011;15603;50.878;8.036;2023-04-23T10:03:05;2.00;;;1.20;;
28353;SDS011;15603;50.878;8.036;2023-04-23T10:05:37;4.32;;;1.20;;
28353;SDS011;15603;50.878;8.036;2023-04-23T10:10:53;2.80;;;1.02;;
28353;SDS011;15603;50.878;8.036;2023-04-23T10:13:40;1.92;;;1.45;;
28353;SDS011;15603;50.878;8.036;2023-04-23T10:16:08;4.25;;;1.10;;
28353;SDS011;15603;50.878;8.036;2023-04-23T10:18:48;5.18;;;1.10;;
28353;SDS011;15603;50.878;8.036;2023-04-23T10:21:17;2.55;;;1.00;;
28353;SDS011;15603;50.878;8.036;2023-04-23T10:23:46;3.05;;;1.13;;
28353;SDS011;15603;50.878;8.036;2023-04-23T10:26:15;3.70;;;1.10;;
28353;SDS011;15603;50.878;8.036;2023-04-23T10:28:46;6.03;;;1.30;;
28353;SDS011;15603;50.878;8.036;2023-04-23T10:31:14;5.28;;;1.02;;
28353;SDS011;15603;50.878;8.036;2023-04-23T10:33:44;1.52;;;0.80;;
28353;SDS011;15603;50.878;8.036;2023-04-23T10:36:25;1.77;;;1.00;;
28353;SDS011;15603;50.878;8.036;2023-04-23T10:38:53;8.15;;;1.10;;
28353;SDS011;15603;50.878;8.036;2023-04-23T10:41:26;2.03;;;0.70;;
28353;SDS011;15603;50.878;8.036;2023-04-23T10:44:08;2.30;;;0.70;;
28353;SDS011;15603;50.878;8.036;2023-04-23T10:46:38;8.13;;;0.90;;
28353;SDS011;15603;50.878;8.036;2023-04-23T10:49:06;3.40;;;0.60;;
28353;SDS011;15603;50.878;8.036;2023-04-23T10:51:34;7.22;;;0.95;;
28353;SDS011;15603;50.878;8.036;2023-04-23T10:54:06;2.42;;;0.85;;
28353;SDS011;15603;50.878;8.036;2023-04-23T10:56:38;6.10;;;1.00;;
28353;SDS011;15603;50.878;8.036;2023-04-23T10:59:07;5.97;;;0.82;;
28353;SDS011;15603;50.878;8.036;2023-04-23T11:01:45;7.90;;;0.90;;
28353;SDS011;15603;50.878;8.036;2023-04-23T11:04:19;7.10;;;0.90;;
28353;SDS011;15603;50.878;8.036;2023-04-23T11:12:00;2.40;;;0.70;;
28353;SDS011;15603;50.878;8.036;2023-04-23T11:17:09;4.05;;;0.75;;
28353;SDS011;15603;50.878;8.036;2023-04-23T11:19:38;5.05;;;0.93;;
28353;SDS011;15603;50.878;8.036;2023-04-23T11:22:14;4.20;;;0.75;;
28353;SDS011;15603;50.878;8.036;2023-04-23T11:24:44;7.32;;;0.95;;
28353;SDS011;15603;50.878;8.036;2023-04-23T11:27:16;4.85;;;1.23;;
28353;SDS011;15603;50.878;8.036;2023-04-23T11:29:45;4.15;;;0.75;;
28353;SDS011;15603;50.878;8.036;2023-04-23T11:32:14;2.85;;;0.95;;
28353;SDS011;15603;50.878;8.036;2023-04-23T11:34:43;3.00;;;1.10;;
28353;SDS011;15603;50.878;8.036;2023-04-23T11:37:15;3.72;;;0.93;;
28353;SDS011;15603;50.878;8.036;2023-04-23T11:39:44;6.47;;;0.70;;
28353;SDS011;15603;50.878;8.036;2023-04-23T11:42:13;2.10;;;0.52;;
28353;SDS011;15603;50.878;8.036;2023-04-23T11:44:43;4.10;;;0.90;;
28353;SDS011;15603;50.878;8.036;2023-04-23T11:47:11;8.40;;;0.93;;
28353;SDS011;15603;50.878;8.036;2023-04-23T11:49:40;6.30;;;1.20;;
28353;SDS011;15603;50.878;8.036;2023-04-23T11:52:10;5.88;;;1.20;;
28353;SDS011;15603;50.878;8.036;2023-04-23T11:54:40;4.85;;;0.82;;
28353;SDS011;15603;50.878;8.036;2023-04-23T11:57:07;2.35;;;0.73;;
28353;SDS011;15603;50.878;8.036;2023-04-23T11:59:36;5.97;;;0.70;;
28353;SDS011;15603;50.878;8.036;2023-04-23T12:02:03;6.00;;;0.60;;
28353;SDS011;15603;50.878;8.036;2023-04-23T12:04:30;1.27;;;0.68;;
28353;SDS011;15603;50.878;8.036;2023-04-23T12:06:58;4.75;;;0.60;;
28353;SDS011;15603;50.878;8.036;2023-04-23T12:09:26;1.50;;;0.90;;
28353;SDS011;15603;50.878;8.036;2023-04-23T12:11:55;2.50;;;0.80;;
28353;SDS011;15603;50.878;8.036;2023-04-23T12:14:25;1.05;;;0.50;;
28353;SDS011;15603;50.878;8.036;2023-04-23T12:19:28;3.00;;;0.68;;
28353;SDS011;15603;50.878;8.036;2023-04-23T12:22:00;0.50;;;0.50;;
28353;SDS011;15603;50.878;8.036;2023-04-23T12:24:30;2.22;;;0.52;;
28353;SDS011;15603;50.878;8.036;2023-04-23T12:27:12;4.20;;;0.80;;
28353;SDS011;15603;50.878;8.036;2023-04-23T12:29:41;4.07;;;0.80;;
28353;SDS011;15603;50.878;8.036;2023-04-23T12:32:10;2.92;;;0.77;;
28353;SDS011;15603;50.878;8.036;2023-04-23T12:34:40;2.15;;;1.35;;
28353;SDS011;15603;50.878;8.036;2023-04-23T12:37:22;4.43;;;0.90;;
28353;SDS011;15603;50.878;8.036;2023-04-23T12:39:55;1.75;;;0.77;;
28353;SDS011;15603;50.878;8.036;2023-04-23T12:42:25;0.95;;;0.70;;
28353;SDS011;15603;50.878;8.036;2023-04-23T12:44:52;3.13;;;0.77;;
28353;SDS011;15603;50.878;8.036;2023-04-23T12:47:21;5.88;;;1.25;;
28353;SDS011;15603;50.878;8.036;2023-04-23T12:49:49;1.52;;;1.00;;
28353;SDS011;15603;50.878;8.036;2023-04-23T12:52:19;2.90;;;1.20;;
28353;SDS011;15603;50.878;8.036;2023-04-23T12:54:47;4.35;;;1.08;;
28353;SDS011;15603;50.878;8.036;2023-04-23T12:57:18;2.10;;;0.82;;
28353;SDS011;15603;50.878;8.036;2023-04-23T12:59:49;3.25;;;1.10;;
28353;SDS011;15603;50.878;8.036;2023-04-23T13:02:16;2.88;;;1.25;;
28353;SDS011;15603;50.878;8.036;2023-04-23T13:04:43;5.57;;;1.23;;
28353;SDS011;15603;50.878;8.036;2023-04-23T13:07:10;1.58;;;1.25;;
28353;SDS011;15603;50.878;8.036;2023-04-23T13:09:37;4.53;;;1.23;;
28353;SDS011;15603;50.878;8.036;2023-04-23T13:12:04;3.60;;;1.20;;
28353;SDS011;15603;50.878;8.036;2023-04-23T13:14:31;2.83;;;0.90;;
28353;SDS011;15603;50.878;8.036;2023-04-23T13:16:59;1.98;;;0.98;;
28353;SDS011;15603;50.878;8.036;2023-04-23T13:19:26;1.98;;;0.80;;
28353;SDS011;15603;50.878;8.036;2023-04-23T13:21:53;2.63;;;1.42;;
28353;SDS011;15603;50.878;8.036;2023-04-23T13:24:20;3.78;;;1.23;;
28353;SDS011;15603;50.878;8.036;2023-04-23T13:26:47;4.00;;;0.90;;
28353;SDS011;15603;50.878;8.036;2023-04-23T13:29:14;3.45;;;1.20;;
28353;SDS011;15603;50.878;8.036;2023-04-23T13:31:41;5.57;;;2.30;;
28353;SDS011;15603;50.878;8.036;2023-04-23T13:34:08;4.13;;;1.25;;
28353;SDS011;15603;50.878;8.036;2023-04-23T13:36:36;1.85;;;1.00;;
28353;SDS011;15603;50.878;8.036;2023-04-23T13:39:03;8.18;;;1.65;;
28353;SDS011;15603;50.878;8.036;2023-04-23T13:41:30;3.95;;;1.10;;
28353;SDS011;15603;50.878;8.036;2023-04-23T13:43:58;1.63;;;1.00;;
28353;SDS011;15603;50.878;8.036;2023-04-23T13:46:25;2.63;;;1.00;;
28353;SDS011;15603;50.878;8.036;2023-04-23T13:48:53;5.72;;;1.80;;
28353;SDS011;15603;50.878;8.036;2023-04-23T13:51:20;3.10;;;1.00;;
28353;SDS011;15603;50.878;8.036;2023-04-23T13:54:00;1.10;;;0.80;;
28353;SDS011;15603;50.878;8.036;2023-04-23T13:56:28;10.27;;;0.95;;
28353;SDS011;15603;50.878;8.036;2023-04-23T13:58:56;9.70;;;0.95;;
28353;SDS011;15603;50.878;8.036;2023-04-23T14:01:44;2.40;;;0.80;;
28353;SDS011;15603;50.878;8.036;2023-04-23T14:04:13;2.60;;;0.60;;
28353;SDS011;15603;50.878;8.036;2023-04-23T14:06:40;2.30;;;0.70;;
28353;SDS011;15603;50.878;8.036;2023-04-23T14:09:08;3.15;;;0.68;;
28353;SDS011;15603;50.878;8.036;2023-04-23T14:11:35;2.58;;;0.70;;
28353;SDS011;15603;50.878;8.036;2023-04-23T14:14:05;1.90;;;0.82;;
28353;SDS011;15603;50.878;8.036;2023-04-23T14:16:33;5.35;;;0.70;;
28353;SDS011;15603;50.878;8.036;2023-04-23T14:19:01;7.30;;;0.68;;
28353;SDS011;15603;50.878;8.036;2023-04-23T14:21:28;2.33;;;0.77;;
28353;SDS011;15603;50.878;8.036;2023-04-23T14:23:55;4.45;;;0.52;;
28353;SDS011;15603;50.878;8.036;2023-04-23T14:26:32;1.67;;;0.47;;
28353;SDS011;15603;50.878;8.036;2023-04-23T14:29:08;0.80;;;0.32;;
28353;SDS011;15603;50.878;8.036;2023-04-23T14:31:38;2.60;;;0.60;;
28353;SDS011;15603;50.878;8.036;2023-04-23T14:34:05;1.60;;;0.50;;
28353;SDS011;15603;50.878;8.036;2023-04-23T14:36:32;1.17;;;0.77;;
28353;SDS011;15603;50.878;8.036;2023-04-23T14:39:00;2.08;;;0.50;;
28353;SDS011;15603;50.878;8.036;2023-04-23T14:41:31;1.92;;;0.60;;
28353;SDS011;15603;50.878;8.036;2023-04-23T14:44:02;2.05;;;0.70;;
28353;SDS011;15603;50.878;8.036;2023-04-23T14:46:29;2.38;;;0.60;;
28353;SDS011;15603;50.878;8.036;2023-04-23T14:48:57;2.78;;;0.50;;
28353;SDS011;15603;50.878;8.036;2023-04-23T14:51:24;1.58;;;0.70;;
28353;SDS011;15603;50.878;8.036;2023-04-23T14:53:53;1.65;;;0.57;;
28353;SDS011;15603;50.878;8.036;2023-04-23T14:56:22;6.07;;;0.98;;
28353;SDS011;15603;50.878;8.036;2023-04-23T14:58:49;1.85;;;0.30;;
28353;SDS011;15603;50.878;8.036;2023-04-23T15:01:16;1.67;;;0.50;;
28353;SDS011;15603;50.878;8.036;2023-04-23T15:03:44;0.90;;;0.55;;
28353;SDS011;15603;50.878;8.036;2023-04-23T15:06:12;2.97;;;0.80;;